Weather reports worldwide

Advertisment
Kleiner Feldberg/Taunus, Germany (10635): temperature & dewpoint: 05.12.2019 09:00:00 - 11.12.2019 09:00:00 (CET)Kleiner Feldberg/Taunus, Germany (10635): temperature 5cm & temperature -5cm: 05.12.2019 09:00:00 - 11.12.2019 09:00:00 (CET)Kleiner Feldberg/Taunus, Germany (10635): temperature -20cm & temperature -100cm: 05.12.2019 09:00:00 - 11.12.2019 09:00:00 (CET)Kleiner Feldberg/Taunus, Germany (10635): wind speed & gusts: 05.12.2019 09:00:00 - 11.12.2019 09:00:00 (CET)Kleiner Feldberg/Taunus, Germany (10635): wind direction: 05.12.2019 09:00:00 - 11.12.2019 09:00:00 (CET)Kleiner Feldberg/Taunus, Germany (10635): visibility: 05.12.2019 09:00:00 - 11.12.2019 09:00:00 (CET)Kleiner Feldberg/Taunus, Germany (10635): sunshine duration: 05.12.2019 09:00:00 - 11.12.2019 09:00:00 (CET)Kleiner Feldberg/Taunus, Germany (10635): precipitation: 05.12.2019 09:00:00 - 11.12.2019 09:00:00 (CET)
Date & Time tt [°C] td [°C] tt 5cm [°C] tt -5cm [°C] tt -20cm [°C] tt -100cm [°C] ff [km/h] ff [kn] fx [km/h] fx [kn] dd vv [km] sd [min] rr [mm]
11.12.2019 09:00:00 -2,4 -4,3 -2,0 0,1 1,2 4,3 19 11 30 16 S 23 0 0,0
11.12.2019 08:00:00 -2,5 -3,9 -2,0 0,1 1,2 4,3 19 10 30 16 S 25 0 0,0
11.12.2019 07:00:00 -2,4 -3,4 -2,0 0,1 1,2 4,3 18 10 32 17 S 30 0 0,0
11.12.2019 06:00:00 -2,2 -3,1 -2,0 0,1 1,3 4,3 20 11 39 21 SSW 35 0 0,0
11.12.2019 05:00:00 -2,5 -3,1 -2,2 0,1 1,3 4,3 19 10 36 19 S 22 0 0,0
11.12.2019 04:00:00 -2,5 -3,0 -2,3 0,1 1,3 4,3 21 12 40 22 S 22 0 0,0
11.12.2019 03:00:00 -2,3 -2,8 -2,0 0,1 1,3 4,3 24 13 42 23 S 20 0 0,0
11.12.2019 02:00:00 -2,0 -2,4 -1,8 0,2 1,4 4,3 24 13 42 23 S 20 0 0,0
11.12.2019 01:00:00 -2,0 -2,4 -2,0 0,2 1,4 4,3 23 12 44 24 S 18 0 0,0
11.12.2019 00:00:00 -1,8 -2,1 -1,8 0,2 1,4 4,3 24 13 43 23 S 10 0 0,0
10.12.2019 23:00:00 -1,7 -1,9 -1,6 0,2 1,5 4,3 23 12 46 25 S 0,9 0 0,0
10.12.2019 22:00:00 -1,7 -1,9 -1,6 0,2 1,5 4,4 24 13 42 23 S 0,3 0 0,0
10.12.2019 21:00:00 -1,9 -2,1 -1,8 0,3 1,6 4,4 24 13 42 23 S 0,2 0 0,0
10.12.2019 20:00:00 -1,9 -2,1 -1,7 0,3 1,6 4,4 23 12 42 23 SSW 0,4 0 0,0
10.12.2019 19:00:00 -2,2 -2,4 -2,0 0,3 1,7 4,4 22 12 41 22 SSW 1,0 0 0,0
10.12.2019 18:00:00 -2,4 -2,5 -2,2 0,4 1,8 4,4 22 12 41 22 SW 0,3 0 0,0
10.12.2019 17:00:00 -1,4 -1,6 -1,2 0,7 1,8 4,4 17 9 32 18 SW 0,2 0 0,0
10.12.2019 16:00:00 -0,6 -0,7 -0,5 1,0 1,8 4,4 15 8 29 16 SSW 0,5 9 0,0
10.12.2019 15:00:00 -0,1 -1,4 -0,4 1,2 1,7 4,4 16 8 30 16 SW 19 42 0,0
10.12.2019 14:00:00 0,1 -1,0 0,7 1,4 1,6 4,4 14 8 29 16 SW 23 45 0,0
10.12.2019 13:00:00 -0,3 -1,1 0,0 0,6 1,5 4,4 10 5 23 13 SW 21 13 0,0
10.12.2019 12:00:00 -0,9 -1,2 -0,4 0,4 1,5 4,4 5 3 17 9 W 4,9 0 0,0
10.12.2019 11:00:00 -1,3 -1,5 -1,0 0,3 1,5 4,4 8 5 23 12 WNW 0,6 0 0,0
10.12.2019 10:00:00 -1,5 -1,7 -1,2 0,2 1,5 4,4 11 6 26 14 WNW 0,6 0 0,0
10.12.2019 09:00:00 -1,6 -1,9 -1,5 0,2 1,5 4,4 9 5 24 13 WNW 1,5 0 0,0
10.12.2019 08:00:00 -1,6 -1,7 -1,5 0,2 1,6 4,4 9 5 23 12 WNW 0,1 0 0,0
10.12.2019 07:00:00 -1,7 -1,8 -1,5 0,3 1,6 4,4 9 5 26 14 NW 0,2 0 0,0
10.12.2019 06:00:00 -1,6 -1,7 -1,4 0,3 1,7 4,4 9 5 31 17 NW 0,2 0 0,0
10.12.2019 05:00:00 -1,6 -1,6 -1,4 0,3 1,8 4,4 15 8 35 19 NW 0,2 0 0,0
10.12.2019 04:00:00 -1,4 -1,4 -1,3 0,3 1,8 4,4 16 9 39 21 NNW 0,2 0 0,0
10.12.2019 03:00:00 -1,1 -1,2 -1,1 0,3 1,9 4,4 16 9 41 22 NW 0,3 0 0,0
10.12.2019 02:00:00 -1,0 -1,1 -0,9 0,4 2,0 4,4 17 9 38 21 NNW 0,4 0 0,0
10.12.2019 01:00:00 -0,8 -1,2 -1,0 0,4 2,2 4,4 19 11 53 29 NNW 12 0 0,0
10.12.2019 00:00:00 -0,4 -0,5 -0,5 0,5 2,3 4,4 19 11 55 30 NW 7 0 0,0
09.12.2019 23:00:00 -0,1 -0,2 -0,2 0,9 2,4 4,4 22 12 48 26 NNW 1,2 0 0,0
09.12.2019 22:00:00 0,2 0,1 0,2 1,3 2,5 4,4 22 12 50 27 NNW 14 0 0,0
09.12.2019 21:00:00 1,1 1,1 1,0 1,8 2,6 4,4 24 13 56 30 NNW 0,2 0 0,1
09.12.2019 20:00:00 1,5 1,5 1,3 1,9 2,6 4,4 14 8 36 19 NW 0,1 0 0,1
09.12.2019 19:00:00 1,1 1,1 0,9 1,8 2,7 4,4 14 7 44 24 NW 0,2 0 0,4
09.12.2019 18:00:00 1,5 1,5 1,3 2,2 2,7 4,3 12 6 39 21 WNW 0,2 0 0,0
09.12.2019 17:00:00 1,5 1,5 1,4 2,4 2,8 4,3 18 10 42 23 NW 0,3 0 0,1
09.12.2019 16:00:00 1,9 1,9 1,9 2,8 2,7 4,3 12 7 29 16 W 0,4 0 0,0
09.12.2019 15:00:00 2,2 2,2 2,3 3,4 2,7 4,3 11 6 40 21 W 0,3 0 0,3
09.12.2019 14:00:00 2,0 2,0 2,1 2,9 2,6 4,3 13 7 30 16 W 0,8 0 0,0
09.12.2019 13:00:00 2,0 2,0 2,1 2,6 2,6 4,3 12 7 40 22 W 0,2 0 0,3
09.12.2019 12:00:00 1,8 1,8 1,7 2,3 2,5 4,3 16 9 41 22 WSW 0,1 0 0,4
09.12.2019 11:00:00 1,8 1,8 1,7 2,3 2,5 4,3 18 10 44 24 SW 0,1 0 0,0
09.12.2019 10:00:00 1,7 1,7 1,5 2,1 2,6 4,3 21 11 44 24 SW 0,2 0 0,1
09.12.2019 09:00:00 1,6 1,6 1,4 1,9 2,6 4,2 24 13 48 26 SW 0,2 0 0,0
09.12.2019 08:00:00 1,4 1,4 1,3 1,9 2,7 4,2 22 12 46 25 SW 0,8 0 0,0
09.12.2019 07:00:00 1,1 1,0 1,0 1,9 2,7 4,2 21 12 49 26 SW 22 0 0,0
09.12.2019 06:00:00 1,5 1,5 1,4 2,1 2,8 4,2 18 10 56 30 SW 0,3 0 0,0
09.12.2019 05:00:00 1,9 1,9 1,7 2,3 2,9 4,2 20 11 50 27 WSW 3,7 0 0,0
09.12.2019 04:00:00 1,8 1,8 1,7 2,3 3,0 4,2 17 9 41 22 WSW 0,2 0 0,0
09.12.2019 03:00:00 2,0 2,0 1,7 2,6 3,0 4,1 13 7 39 21 WSW 1,0 0 0,0
09.12.2019 02:00:00 2,4 2,4 2,2 2,9 3,1 4,1 17 9 45 24 WSW 7 0 0,0
09.12.2019 01:00:00 2,7 2,7 2,5 3,0 3,1 4,1 16 8 51 28 WSW 0,1 0 0,4
09.12.2019 00:00:00 2,8 2,8 2,6 3,2 3,2 4,1 21 11 44 24 WSW 0,3 0 0,0
08.12.2019 23:00:00 3,0 3,0 2,9 3,3 3,2 4,1 16 9 42 23 WSW 0,2 0 0,0
08.12.2019 22:00:00 3,2 3,2 3,0 3,5 3,3 4,1 14 8 39 21 WSW 0,2 0 0,0
08.12.2019 21:00:00 3,5 3,5 3,2 3,7 3,3 4,1 16 8 36 19 WSW 1,0 0 0,2
08.12.2019 20:00:00 3,3 3,3 3,1 3,9 3,3 4,1 13 7 41 22 W 1,4 0 0,5
08.12.2019 19:00:00 4,1 4,1 4,0 4,5 3,2 4,1 18 10 42 23 WNW 0,3 0 4,3
08.12.2019 18:00:00 5,7 5,7 5,3 4,8 3,1 4,1 22 12 48 26 SW 0,2 0 1,0
08.12.2019 17:00:00 5,7 5,7 5,4 4,7 3,0 4,0 23 13 52 28 SW 0,2 0 0,9
08.12.2019 16:00:00 5,6 5,6 5,3 4,7 2,9 4,0 26 14 54 29 SW 0,2 0 1,0
08.12.2019 15:00:00 5,5 5,5 5,2 4,5 2,7 4,0 26 14 59 32 SW 0,1 0 0,4
08.12.2019 14:00:00 5,2 5,2 4,9 4,2 2,6 4,0 24 13 56 30 SW 0,1 0 0,1
08.12.2019 13:00:00 4,9 4,9 4,6 4,0 2,5 4,0 28 15 57 31 SW 0,1 0 0,0
08.12.2019 12:00:00 4,5 4,5 4,3 3,7 2,3 4,0 28 15 56 30 SW 0,1 0 0,0
08.12.2019 11:00:00 4,1 4,1 3,9 3,5 2,2 4,0 24 13 56 30 SW 0,1 0 0,0
08.12.2019 10:00:00 3,8 3,8 3,6 3,2 2,1 4,0 27 15 61 33 SW 0,2 0 0,0
08.12.2019 09:00:00 3,7 3,7 3,4 2,9 2,0 4,0 26 14 50 27 SW 0,1 0 0,0
08.12.2019 08:00:00 3,5 3,5 3,2 2,8 2,0 4,0 20 11 56 31 SW 0,1 0 0,0
08.12.2019 07:00:00 3,2 3,2 2,9 2,6 1,9 4,0 24 13 54 29 SW 0,1 0 0,0
08.12.2019 06:00:00 2,9 2,9 2,6 2,4 1,8 4,0 22 12 46 25 SW 0,1 0 0,0
08.12.2019 05:00:00 2,8 2,8 2,6 2,4 1,8 4,0 22 12 43 23 SW 0,1 0 0,0
08.12.2019 04:00:00 2,8 2,8 2,5 2,3 1,7 4,0 19 11 44 24 WSW 0,2 0 0,0
08.12.2019 03:00:00 2,6 2,6 2,3 2,3 1,6 4,0 18 10 38 21 WSW 1,6 0 0,0
08.12.2019 02:00:00 2,8 2,8 2,5 2,3 1,5 4,0 16 9 38 20 WSW 0,1 0 0,0
08.12.2019 01:00:00 2,9 2,9 2,6 2,3 1,4 4,0 16 8 36 19 WSW 0,1 0 0,0
08.12.2019 00:00:00 3,1 3,1 2,8 2,1 1,3 4,0 15 8 37 20 WSW 0,1 0 0,0
07.12.2019 23:00:00 2,9 2,9 2,6 1,8 1,1 4,0 16 8 31 17 WSW 0,1 0 0,0
07.12.2019 22:00:00 2,8 2,8 2,5 1,6 1,0 4,0 12 6 35 19 W 0,1 0 0,0
07.12.2019 21:00:00 2,8 2,8 2,5 1,4 0,8 4,0 14 7 33 18 W 0,3 0 0,0
07.12.2019 20:00:00 2,9 2,9 2,5 1,3 0,7 4,0 11 6 37 20 W 0,3 0 0,0
07.12.2019 19:00:00 3,0 3,0 2,6 1,2 0,6 4,0 13 7 31 17 W 0,2 0 0,0
07.12.2019 18:00:00 3,1 3,1 2,7 1,0 0,5 4,0 12 6 27 15 W 0,1 0 0,0
07.12.2019 17:00:00 2,9 2,6 2,4 0,9 0,4 4,0 13 7 33 18 W 26 0 0,0
07.12.2019 16:00:00 2,8 2,2 2,4 0,9 0,4 4,0 14 7 41 22 W 40 0 0,0
07.12.2019 15:00:00 2,6 2,1 2,3 1,0 0,4 4,1 15 8 35 19 W 44 1 0,0
07.12.2019 14:00:00 3,3 3,1 3,6 1,3 0,3 4,1 16 8 39 21 W 29 2 0,1
07.12.2019 13:00:00 3,2 3,2 3,0 0,8 0,3 4,1 14 7 44 24 WNW 0,2 0 0,9
07.12.2019 12:00:00 3,2 3,2 3,0 0,5 0,3 4,1 15 8 41 22 W 1,6 0 0,0
07.12.2019 11:00:00 2,9 2,6 2,7 0,3 0,3 4,1 16 9 41 22 W 35 0 0,0
07.12.2019 10:00:00 3,1 3,1 2,8 0,1 0,3 4,1 16 9 39 21 W 0,3 0 0,0
07.12.2019 09:00:00 2,7 2,7 2,4 0,0 0,3 4,1 16 9 47 25 W 0,1 0 0,0
07.12.2019 08:00:00 2,8 2,8 2,4 0,0 0,3 4,1 17 9 38 21 W 0,3 0 0,0
07.12.2019 07:00:00 3,1 3,1 2,7 0,0 0,2 4,1 18 10 44 24 W 0,4 0 0,0
07.12.2019 06:00:00 3,3 3,3 2,8 0,0 0,2 4,1 18 10 42 23 W 0,2 0 0,0
07.12.2019 05:00:00 3,2 3,2 2,7 0,0 0,2 4,1 22 12 47 26 W 2,0 0 0,0
07.12.2019 04:00:00 3,1 3,1 2,7 0,0 0,2 4,1 18 10 48 26 W 0,2 0 0,0
07.12.2019 03:00:00 2,0 2,0 1,7 0,0 0,2 4,2 18 10 47 25 W 0,1 0 0,0
07.12.2019 02:00:00 1,1 1,1 0,6 0,0 0,2 4,2 18 10 40 22 WSW 0,1 0 0,0
07.12.2019 01:00:00 0,8 0,8 -0,1 0,0 0,2 4,2 18 10 50 27 WSW 0,1 0 0,0
07.12.2019 00:00:00 0,8 0,8 -0,1 0,0 0,2 4,2 18 10 45 24 WSW 0,1 0 0,2
06.12.2019 23:00:00 0,1 0,1 -0,1 0,0 0,2 4,2 20 11 49 26 WSW 0,1 0 0,0
06.12.2019 22:00:00 0,0 0,0 -0,1 0,0 0,2 4,2 29 16 51 27 SW 0,1 0 0,0
06.12.2019 21:00:00 0,0 0,0 -0,1 0,0 0,1 4,2 27 15 48 26 SW 0,1 0 2,1
06.12.2019 20:00:00 0,0 0,0 -0,1 0,0 0,1 4,2 26 14 50 27 SW 0,1 0 0,8
06.12.2019 19:00:00 -0,3 -0,3 -0,1 0,0 0,1 4,2 26 14 45 24 SW 0,1 0 1,2
06.12.2019 18:00:00 -0,5 -0,5 -0,1 0,0 0,1 4,2 25 13 44 24 SW 0,1 0 1,9
06.12.2019 17:00:00 -0,5 -0,5 -0,1 -0,2 0,1 4,2 24 13 46 25 SW 0,1 0 2,2
06.12.2019 16:00:00 -0,6 -0,6 -0,3 -0,3 0,1 4,2 25 14 40 22 SW 0,1 0 1,4
06.12.2019 15:00:00 -1,1 -1,1 -0,8 -0,3 0,1 4,2 24 13 45 25 SW 0,1 0 0,1
06.12.2019 14:00:00 -1,6 -1,6 -1,4 -0,4 0,1 4,3 26 14 45 24 SW 0,3 0 0,0
06.12.2019 13:00:00 -2,5 -2,6 -2,1 -0,4 0,1 4,3 17 9 37 20 WSW 0,1 0 0,0
06.12.2019 12:00:00 -2,5 -2,6 -2,0 -0,6 0,1 4,3 19 10 46 25 WSW 0,4 0 0,0
06.12.2019 11:00:00 -2,9 -3,8 -2,1 -1,0 0,0 4,3 16 9 37 20 WSW 15 0 0,0
06.12.2019 10:00:00 -2,4 -5,4 -2,1 -1,9 0,1 4,3 21 11 40 22 WSW 32 0 0,0
06.12.2019 09:00:00 -3,4 -6,3 -3,2 -2,6 0,1 4,3 19 10 39 21 WSW 27 0 0,0
06.12.2019 08:00:00 -2,8 -7,5 -3,4 -3,1 0,1 4,3 16 9 49 26 WSW 34 0 0,0
06.12.2019 07:00:00 -2,3 -8,4 -3,4 -3,2 0,1 4,3 14 7 40 22 W 40 0 0,0
06.12.2019 06:00:00 0,2 -9,9 -1,4 -3,1 0,2 4,3 13 7 37 20 W 55 0 0,0
06.12.2019 05:00:00 -1,7 -7,8 -3,2 -3,5 0,2 4,3 11 6 31 17 W 39 0 0,0
06.12.2019 04:00:00 -1,7 -7,2 -3,3 -3,3 0,2 4,3 14 7 41 22 W 36 0 0,0
06.12.2019 03:00:00 -1,7 -6,3 -3,2 -3,2 0,2 4,3 14 8 37 20 W 30 0 0,0
06.12.2019 02:00:00 -0,2 -9,0 -1,6 -3,1 0,3 4,3 17 9 41 22 W 46 0 0,0
06.12.2019 01:00:00 1,4 -10,9 -0,4 -3,0 0,3 4,3 14 8 35 19 WSW 55 0 0,0
06.12.2019 00:00:00 -0,1 -9,6 -1,9 -3,1 0,3 4,3 11 6 27 14 W 49 0 0,0
05.12.2019 23:00:00 -0,7 -8,3 -2,6 -3,0 0,3 4,4 11 6 29 16 W 43 0 0,0
05.12.2019 22:00:00 -1,9 -5,5 -3,6 -2,8 0,4 4,4 11 6 26 14 W 28 0 0,0
05.12.2019 21:00:00 -1,5 -4,2 -3,0 -2,5 0,4 4,4 12 6 27 15 W 21 0 0,0
05.12.2019 20:00:00 -1,5 -4,3 -3,2 -2,3 0,4 4,4 16 9 27 14 SW 22 0 0,0
05.12.2019 19:00:00 -1,9 -4,1 -3,2 -2,0 0,4 4,4 16 8 26 14 WSW 19 0 0,0
05.12.2019 18:00:00 -1,2 -3,9 -2,9 -1,8 0,4 4,4 18 10 23 12 SW 29 0 0,0
05.12.2019 17:00:00 -0,1 -4,8 -2,0 -1,3 0,4 4,4 11 6 17 9 WSW 40 6 0,0
05.12.2019 16:00:00 1,1 -5,3 -1,0 -0,7 0,4 4,4 9 5 14 8 WSW 43 54 0,0
05.12.2019 15:00:00 1,9 -3,6 0,0 -0,5 0,4 4,4 6 3 10 5 W 39 60 0,0
05.12.2019 14:00:00 1,2 -2,7 3,3 -0,4 0,4 4,4 4 2 12 7 NNW 23 60 0,0
05.12.2019 13:00:00 2,5 -4,9 3,3 -0,5 0,4 4,4 2 1 16 9 N 41 60 0,0
05.12.2019 12:00:00 0,1 -3,4 3,3 -0,7 0,4 4,4 7 4 16 9 NW 16 60 0,0
05.12.2019 11:00:00 0,2 -3,9 2,2 -1,1 0,4 4,4 6 3 11 6 SW 17 56 0,0
05.12.2019 10:00:00 0,8 -4,5 1,3 -2,0 0,4 4,4 4 2 8 4 S 19 39 0,0
05.12.2019 09:00:00 0,1 -4,8 -2,4 -3,2 0,5 4,4 7 4 13 7 SE 28 0 0,0

tt = temperature
td = dewpoint
tt 5cm = temperature 5cm
tt -5cm = temperature -5cm
tt -20cm = temperature -20cm
tt -100cm = temperature -100cm
ff = wind speed
fx = gusts
dd = wind direction
vv = visibility
sd = sunshine duration
rr = precipitation

Next stations